ADDS METAR Data

Data at: 0042 UTC 21 Nov 2017

METAR for:KLAX (Los Angeles Intl, CA, US)
Text:KLAX 202353Z 25005KT 10SM FEW150 BKN200 21/06 A2999 RMK AO2 SLP154 T02060061 10222 20194 56008
Temperature: 20.6°C ( 69°F)
Dewpoint: 6.1°C ( 43°F) [RH = 39%]
Pressure (altimeter):29.99 inches Hg (1015.7 mb) [Sea level pressure: 1015.4 mb]
Winds:from the WSW (250 degrees) at 6 MPH (5 knots; 2.6 m/s)
Visibility:10 or more sm (16+ km)
Ceiling:20000 feet AGL
Clouds: few clouds at 15000 feet AGL, broken clouds at 20000 feet AGL